createdAt,value
2023-07-17T00:00:09.920Z,419.00
2023-07-17T00:01:09.970Z,420.00
2023-07-17T00:02:09.925Z,422.00
2023-07-17T00:03:09.977Z,423.00
2023-07-17T00:04:09.967Z,423.00
2023-07-17T00:05:09.912Z,423.00
2023-07-17T00:06:09.995Z,425.00
2023-07-17T00:07:09.911Z,422.00
2023-07-17T00:08:09.884Z,422.00
2023-07-17T00:09:09.879Z,422.00
2023-07-17T00:10:09.853Z,422.00
2023-07-17T00:11:09.895Z,422.00
2023-07-17T00:12:09.846Z,421.00
2023-07-17T00:13:09.870Z,418.00
2023-07-17T00:14:09.839Z,416.00
2023-07-17T00:15:09.814Z,416.00
2023-07-17T00:16:09.846Z,415.00
2023-07-17T00:17:10.038Z,413.00
2023-07-17T00:18:09.917Z,415.00
2023-07-17T00:19:09.905Z,416.00
2023-07-17T00:20:09.990Z,418.00
2023-07-17T00:21:09.963Z,419.00
2023-07-17T00:22:09.978Z,420.00
2023-07-17T00:23:10.063Z,424.00
2023-07-17T00:24:10.033Z,426.00
2023-07-17T00:25:10.062Z,424.00
2023-07-17T00:26:10.155Z,424.00
2023-07-17T00:27:10.107Z,423.00
2023-07-17T00:28:10.138Z,424.00
2023-07-17T00:29:10.168Z,422.00
2023-07-17T00:30:10.224Z,425.00
2023-07-17T00:31:10.317Z,422.00
2023-07-17T00:32:10.256Z,421.00
2023-07-17T00:33:10.367Z,420.00
2023-07-17T00:34:10.321Z,420.00
2023-07-17T00:35:10.363Z,422.00
2023-07-17T00:36:10.370Z,423.00
2023-07-17T00:37:10.410Z,423.00
2023-07-17T00:38:10.417Z,424.00
2023-07-17T00:39:10.505Z,427.00
2023-07-17T00:40:10.516Z,427.00
2023-07-17T00:41:10.623Z,427.00
2023-07-17T00:42:10.618Z,427.00
2023-07-17T00:43:10.683Z,426.00
2023-07-17T00:44:10.723Z,427.00
2023-07-17T00:45:10.751Z,428.00
2023-07-17T00:46:10.793Z,428.00
2023-07-17T00:47:10.824Z,427.00
2023-07-17T00:48:10.883Z,426.00
2023-07-17T00:49:10.927Z,426.00
2023-07-17T00:50:10.974Z,425.00
2023-07-17T00:51:11.032Z,424.00
2023-07-17T00:52:11.101Z,424.00
2023-07-17T00:53:11.128Z,423.00
2023-07-17T00:54:11.157Z,423.00
2023-07-17T00:55:11.189Z,425.00
2023-07-17T00:56:11.217Z,425.00
2023-07-17T00:57:11.261Z,426.00
2023-07-17T00:58:11.370Z,427.00
2023-07-17T00:59:11.411Z,427.00
2023-07-17T01:00:11.453Z,426.00
2023-07-17T01:01:11.513Z,428.00
2023-07-17T01:02:11.542Z,428.00
2023-07-17T01:03:11.707Z,429.00
2023-07-17T01:04:11.638Z,431.00
2023-07-17T01:05:11.702Z,432.00
2023-07-17T01:06:11.748Z,432.00
2023-07-17T01:07:11.827Z,429.00
2023-07-17T01:08:11.861Z,431.00
2023-07-17T01:09:11.954Z,432.00
2023-07-17T01:10:11.974Z,433.00
2023-07-17T01:11:12.040Z,433.00
2023-07-17T01:12:12.126Z,434.00
2023-07-17T01:13:12.126Z,436.00
2023-07-17T01:14:12.203Z,436.00
2023-07-17T01:15:12.269Z,438.00
2023-07-17T01:16:12.365Z,438.00
2023-07-17T01:17:12.432Z,439.00
2023-07-17T01:18:12.457Z,430.00
2023-07-17T01:19:12.505Z,440.00
2023-07-17T01:20:12.539Z,446.00
2023-07-17T01:21:12.641Z,457.00
2023-07-17T01:22:12.679Z,450.00
2023-07-17T01:23:12.838Z,445.00
2023-07-17T01:24:12.771Z,448.00
2023-07-17T01:25:12.891Z,440.00
2023-07-17T01:26:12.877Z,437.00
2023-07-17T01:27:12.860Z,437.00
2023-07-17T01:28:12.913Z,437.00
2023-07-17T01:29:12.920Z,437.00
2023-07-17T01:30:12.993Z,435.00
2023-07-17T01:31:13.093Z,434.00
2023-07-17T01:32:13.062Z,433.00
2023-07-17T01:33:13.087Z,433.00
2023-07-17T01:34:13.098Z,434.00
2023-07-17T01:35:13.174Z,435.00
2023-07-17T01:36:13.199Z,434.00
2023-07-17T01:37:13.268Z,437.00
2023-07-17T01:38:13.279Z,440.00
2023-07-17T01:39:13.313Z,446.00
2023-07-17T01:40:13.325Z,449.00
2023-07-17T01:41:13.388Z,446.00
2023-07-17T01:42:13.426Z,449.00
2023-07-17T01:43:13.420Z,448.00
2023-07-17T01:44:13.472Z,448.00
2023-07-17T01:45:13.560Z,447.00
2023-07-17T01:46:13.621Z,446.00
2023-07-17T01:47:13.674Z,447.00
2023-07-17T01:48:13.758Z,446.00
2023-07-17T01:49:13.786Z,446.00
2023-07-17T01:50:13.853Z,446.00
2023-07-17T01:51:13.921Z,445.00
2023-07-17T01:52:13.981Z,446.00
2023-07-17T01:53:14.004Z,444.00
2023-07-17T01:54:14.083Z,442.00
2023-07-17T01:55:14.112Z,439.00
2023-07-17T01:56:14.138Z,438.00
2023-07-17T01:57:14.225Z,439.00
2023-07-17T01:58:14.222Z,438.00
2023-07-17T01:59:14.222Z,438.00
2023-07-17T02:00:14.273Z,438.00
2023-07-17T02:01:14.296Z,438.00
2023-07-17T02:02:14.326Z,435.00
2023-07-17T02:03:14.250Z,436.00
2023-07-17T02:04:14.275Z,435.00
2023-07-17T02:05:14.314Z,435.00
2023-07-17T02:06:14.240Z,439.00
2023-07-17T02:07:14.218Z,438.00
2023-07-17T02:08:14.237Z,438.00
2023-07-17T02:09:14.253Z,438.00
2023-07-17T02:10:14.262Z,439.00
2023-07-17T02:11:14.263Z,445.00
2023-07-17T02:12:14.250Z,443.00
2023-07-17T02:13:14.253Z,444.00
2023-07-17T02:14:14.271Z,446.00
2023-07-17T02:15:14.275Z,446.00
2023-07-17T02:16:14.277Z,446.00
2023-07-17T02:17:14.303Z,443.00
2023-07-17T02:18:14.285Z,441.00
2023-07-17T02:19:14.288Z,440.00
2023-07-17T02:20:14.395Z,439.00
2023-07-17T02:21:14.263Z,439.00
2023-07-17T02:22:14.307Z,436.00
2023-07-17T02:23:14.355Z,440.00
2023-07-17T02:24:14.305Z,439.00
2023-07-17T02:25:14.276Z,437.00
2023-07-17T02:26:14.311Z,438.00
2023-07-17T02:27:14.297Z,437.00
2023-07-17T02:28:14.250Z,438.00
2023-07-17T02:29:14.310Z,439.00
2023-07-17T02:30:14.293Z,440.00
2023-07-17T02:31:14.406Z,441.00
2023-07-17T02:32:14.369Z,440.00
2023-07-17T02:33:14.299Z,440.00
2023-07-17T02:34:14.340Z,439.00
2023-07-17T02:35:14.310Z,438.00
2023-07-17T02:36:14.332Z,437.00
2023-07-17T02:37:14.317Z,436.00
2023-07-17T02:38:14.285Z,433.00
2023-07-17T02:39:14.340Z,432.00
2023-07-17T02:40:14.347Z,432.00
2023-07-17T02:41:14.359Z,432.00
2023-07-17T02:42:14.365Z,431.00
2023-07-17T02:43:14.454Z,441.00
2023-07-17T02:44:14.468Z,427.00
2023-07-17T02:45:14.533Z,429.00
2023-07-17T02:46:14.623Z,431.00
2023-07-17T02:47:14.613Z,432.00
2023-07-17T02:48:14.670Z,432.00
2023-07-17T02:49:14.715Z,434.00
2023-07-17T02:50:14.774Z,437.00
2023-07-17T02:51:14.917Z,440.00
2023-07-17T02:52:14.782Z,441.00
2023-07-17T02:53:14.802Z,439.00
2023-07-17T02:54:14.835Z,439.00
2023-07-17T02:55:14.830Z,438.00
2023-07-17T02:56:14.816Z,439.00
2023-07-17T02:57:14.869Z,440.00
2023-07-17T02:58:14.818Z,441.00
2023-07-17T02:59:14.840Z,443.00
2023-07-17T03:00:14.878Z,444.00
2023-07-17T03:01:14.920Z,444.00
2023-07-17T03:02:14.918Z,444.00
2023-07-17T03:03:14.856Z,441.00
2023-07-17T03:04:14.823Z,440.00
2023-07-17T03:05:15.003Z,438.00
2023-07-17T03:06:14.793Z,435.00
2023-07-17T03:07:14.864Z,434.00
2023-07-17T03:08:14.875Z,433.00
2023-07-17T03:09:14.854Z,433.00
2023-07-17T03:10:14.769Z,434.00
2023-07-17T03:11:14.950Z,438.00
2023-07-17T03:12:14.792Z,437.00
2023-07-17T03:13:14.807Z,438.00
2023-07-17T03:14:14.787Z,438.00
2023-07-17T03:15:14.787Z,438.00
2023-07-17T03:16:14.952Z,440.00
2023-07-17T03:17:14.795Z,441.00
2023-07-17T03:18:14.767Z,444.00
2023-07-17T03:19:14.855Z,443.00
2023-07-17T03:20:14.789Z,441.00
2023-07-17T03:21:15.029Z,439.00
2023-07-17T03:22:14.813Z,439.00
2023-07-17T03:23:14.784Z,440.00
2023-07-17T03:24:14.846Z,441.00
2023-07-17T03:25:14.793Z,440.00
2023-07-17T03:26:14.794Z,441.00
2023-07-17T03:27:14.768Z,440.00
2023-07-17T03:28:14.796Z,439.00
2023-07-17T03:29:14.850Z,441.00
2023-07-17T03:30:14.799Z,445.00
2023-07-17T03:31:14.886Z,444.00
2023-07-17T03:32:15.044Z,445.00
2023-07-17T03:33:14.935Z,447.00
2023-07-17T03:34:14.808Z,448.00
2023-07-17T03:35:14.804Z,446.00
2023-07-17T03:36:14.823Z,447.00
2023-07-17T03:37:14.810Z,447.00
2023-07-17T03:38:14.802Z,445.00
2023-07-17T03:39:15.061Z,442.00
2023-07-17T03:40:14.872Z,439.00
2023-07-17T03:41:14.832Z,439.00
2023-07-17T03:42:14.953Z,439.00
2023-07-17T03:43:14.839Z,438.00
2023-07-17T03:44:14.865Z,435.00
2023-07-17T03:45:14.804Z,434.00
2023-07-17T03:46:14.810Z,433.00
2023-07-17T03:47:14.906Z,434.00
2023-07-17T03:48:14.815Z,437.00
2023-07-17T03:49:14.836Z,439.00
2023-07-17T03:50:14.859Z,439.00
2023-07-17T03:51:14.823Z,439.00
2023-07-17T03:52:14.857Z,440.00
2023-07-17T03:53:14.818Z,441.00
2023-07-17T03:54:15.143Z,441.00
2023-07-17T03:55:14.874Z,441.00
2023-07-17T03:56:14.910Z,443.00
2023-07-17T03:57:14.954Z,444.00
2023-07-17T03:58:14.987Z,444.00
2023-07-17T03:59:15.114Z,446.00
2023-07-17T04:00:15.205Z,446.00
2023-07-17T04:01:15.268Z,447.00
2023-07-17T04:02:15.044Z,445.00
2023-07-17T04:03:15.111Z,446.00
2023-07-17T04:04:15.052Z,445.00
2023-07-17T04:05:15.092Z,446.00
2023-07-17T04:06:15.224Z,448.00
2023-07-17T04:07:15.169Z,449.00
2023-07-17T04:08:15.163Z,448.00
2023-07-17T04:09:15.030Z,446.00
2023-07-17T04:10:15.055Z,447.00
2023-07-17T04:11:15.171Z,448.00
2023-07-17T04:12:15.089Z,448.00
2023-07-17T04:13:15.205Z,449.00
2023-07-17T04:14:15.132Z,447.00
2023-07-17T04:15:15.130Z,447.00
2023-07-17T04:16:15.233Z,446.00
2023-07-17T04:17:15.275Z,442.00
2023-07-17T04:18:15.198Z,443.00
2023-07-17T04:19:15.096Z,446.00
2023-07-17T04:20:15.292Z,448.00
2023-07-17T04:21:15.292Z,449.00
2023-07-17T04:22:15.252Z,449.00
2023-07-17T04:23:15.322Z,452.00
2023-07-17T04:24:15.360Z,448.00
2023-07-17T04:25:15.234Z,447.00
2023-07-17T04:26:15.297Z,449.00
2023-07-17T04:27:15.306Z,448.00
2023-07-17T04:28:15.284Z,445.00
2023-07-17T04:29:15.302Z,442.00
2023-07-17T04:30:15.299Z,443.00
2023-07-17T04:31:15.445Z,443.00
2023-07-17T04:32:15.334Z,446.00
2023-07-17T04:33:15.436Z,447.00
2023-07-17T04:34:15.377Z,447.00
2023-07-17T04:35:15.358Z,446.00
2023-07-17T04:36:15.458Z,446.00
2023-07-17T04:37:15.590Z,447.00
2023-07-17T04:38:15.549Z,448.00
2023-07-17T04:39:15.542Z,446.00
2023-07-17T04:40:15.610Z,450.00
2023-07-17T04:41:15.835Z,451.00
2023-07-17T04:42:15.784Z,452.00
2023-07-17T04:43:15.786Z,450.00
2023-07-17T04:44:15.884Z,449.00
2023-07-17T04:45:15.937Z,449.00
2023-07-17T04:46:16.018Z,449.00
2023-07-17T04:47:16.068Z,449.00
2023-07-17T04:48:16.151Z,450.00
2023-07-17T04:49:16.188Z,449.00
2023-07-17T04:50:16.221Z,447.00
2023-07-17T04:51:16.663Z,447.00
2023-07-17T04:52:16.350Z,445.00
2023-07-17T04:53:16.440Z,448.00
2023-07-17T04:54:16.436Z,448.00
2023-07-17T04:55:16.495Z,447.00
2023-07-17T04:56:16.607Z,445.00
2023-07-17T04:57:16.606Z,445.00
2023-07-17T04:58:16.667Z,448.00
2023-07-17T04:59:16.699Z,446.00
2023-07-17T05:00:16.766Z,447.00
2023-07-17T05:01:17.260Z,448.00
2023-07-17T05:02:16.888Z,447.00
2023-07-17T05:03:17.061Z,449.00
2023-07-17T05:04:17.055Z,452.00
2023-07-17T05:05:17.073Z,453.00
2023-07-17T05:06:17.127Z,452.00
2023-07-17T05:07:17.226Z,451.00
2023-07-17T05:08:17.254Z,451.00
2023-07-17T05:09:17.334Z,451.00
2023-07-17T05:10:17.367Z,452.00
2023-07-17T05:11:17.755Z,455.00
2023-07-17T05:12:17.468Z,449.00
2023-07-17T05:13:17.520Z,449.00
2023-07-17T05:14:17.593Z,450.00
2023-07-17T05:15:17.661Z,449.00
2023-07-17T05:16:17.762Z,450.00
2023-07-17T05:17:17.736Z,449.00
2023-07-17T05:18:17.757Z,449.00
2023-07-17T05:19:17.806Z,448.00
2023-07-17T05:20:17.802Z,444.00
2023-07-17T05:21:18.673Z,441.00
2023-07-17T05:22:17.909Z,439.00
2023-07-17T05:23:19.061Z,439.00
2023-07-17T05:24:18.038Z,439.00
2023-07-17T05:25:18.047Z,438.00
2023-07-17T05:26:21.165Z,437.00
2023-07-17T05:27:18.073Z,439.00
2023-07-17T05:28:18.061Z,437.00
2023-07-17T05:29:18.067Z,436.00
2023-07-17T05:30:18.113Z,437.00
2023-07-17T05:31:18.340Z,435.00
2023-07-17T05:32:18.068Z,433.00
2023-07-17T05:33:18.043Z,433.00
2023-07-17T05:34:18.030Z,436.00
2023-07-17T05:35:19.377Z,434.00
2023-07-17T05:36:18.022Z,432.00
2023-07-17T05:37:18.059Z,436.00
2023-07-17T05:38:18.027Z,437.00
2023-07-17T05:39:18.067Z,434.00
2023-07-17T05:40:18.031Z,436.00
2023-07-17T05:41:18.203Z,437.00
2023-07-17T05:42:18.056Z,436.00
2023-07-17T05:43:18.006Z,440.00
2023-07-17T05:44:17.976Z,441.00
2023-07-17T05:45:17.982Z,438.00
2023-07-17T05:46:18.021Z,437.00
2023-07-17T05:47:17.956Z,434.00
2023-07-17T05:48:17.973Z,434.00
2023-07-17T05:49:18.022Z,434.00
2023-07-17T05:50:18.026Z,435.00
2023-07-17T05:51:18.294Z,432.00
2023-07-17T05:52:18.182Z,433.00
2023-07-17T05:53:18.170Z,431.00
2023-07-17T05:54:18.205Z,429.00
2023-07-17T05:55:18.260Z,425.00
2023-07-17T05:56:18.345Z,425.00
2023-07-17T05:57:18.392Z,427.00
2023-07-17T05:58:18.435Z,429.00
2023-07-17T05:59:18.488Z,431.00
2023-07-17T06:00:18.494Z,434.00
2023-07-17T06:01:18.763Z,438.00
2023-07-17T06:02:18.591Z,438.00
2023-07-17T06:03:18.572Z,440.00
2023-07-17T06:04:18.753Z,439.00
2023-07-17T06:05:18.788Z,439.00
2023-07-17T06:06:18.781Z,440.00
2023-07-17T06:07:18.844Z,442.00
2023-07-17T06:08:18.923Z,443.00
2023-07-17T06:09:18.924Z,443.00
2023-07-17T06:10:19.003Z,443.00
2023-07-17T06:11:19.391Z,443.00
2023-07-17T06:12:19.161Z,443.00
2023-07-17T06:13:19.183Z,444.00
2023-07-17T06:14:19.242Z,444.00
2023-07-17T06:15:19.297Z,440.00
2023-07-17T06:16:19.378Z,438.00
2023-07-17T06:17:19.410Z,436.00
2023-07-17T06:18:19.480Z,435.00
2023-07-17T06:19:19.521Z,436.00
2023-07-17T06:20:19.576Z,431.00
2023-07-17T06:21:19.960Z,432.00
2023-07-17T06:22:19.681Z,432.00
2023-07-17T06:23:19.771Z,434.00
2023-07-17T06:24:19.794Z,432.00
2023-07-17T06:25:19.801Z,430.00
2023-07-17T06:26:19.843Z,435.00
2023-07-17T06:27:19.894Z,433.00
2023-07-17T06:28:19.992Z,439.00
2023-07-17T06:29:20.065Z,434.00
2023-07-17T06:30:20.071Z,440.00
2023-07-17T06:31:20.422Z,439.00
2023-07-17T06:32:20.302Z,446.00
2023-07-17T06:33:20.187Z,445.00
2023-07-17T06:34:20.257Z,434.00
2023-07-17T06:35:20.274Z,442.00
2023-07-17T06:36:20.357Z,443.00
2023-07-17T06:37:20.354Z,451.00
2023-07-17T06:38:20.437Z,434.00
2023-07-17T06:39:21.091Z,435.00
2023-07-17T06:40:20.542Z,438.00
2023-07-17T06:41:20.745Z,439.00
2023-07-17T06:42:20.606Z,438.00
2023-07-17T06:43:20.650Z,439.00
2023-07-17T06:44:20.712Z,438.00
2023-07-17T06:45:20.769Z,437.00
2023-07-17T06:46:21.109Z,439.00
2023-07-17T06:47:34.096Z,441.00
2023-07-17T06:48:21.839Z,440.00
2023-07-17T06:49:21.788Z,443.00
2023-07-17T06:50:20.778Z,445.00
2023-07-17T06:51:20.776Z,445.00
2023-07-17T06:52:20.786Z,443.00
2023-07-17T06:53:20.723Z,443.00
2023-07-17T06:54:20.794Z,442.00
2023-07-17T06:55:20.732Z,441.00
2023-07-17T06:56:20.766Z,440.00
2023-07-17T06:57:20.756Z,441.00
2023-07-17T06:58:20.727Z,436.00
2023-07-17T06:59:20.736Z,433.00
2023-07-17T07:00:20.667Z,432.00
2023-07-17T07:01:20.788Z,433.00
2023-07-17T07:02:20.685Z,433.00
2023-07-17T07:03:20.728Z,435.00
2023-07-17T07:04:20.781Z,437.00
2023-07-17T07:05:20.693Z,440.00
2023-07-17T07:06:20.806Z,436.00
2023-07-17T07:07:20.678Z,433.00
2023-07-17T07:08:20.661Z,433.00
2023-07-17T07:09:20.703Z,433.00
2023-07-17T07:10:20.698Z,432.00
2023-07-17T07:11:20.687Z,432.00
2023-07-17T07:12:20.699Z,429.00
2023-07-17T07:13:20.656Z,428.00
2023-07-17T07:14:20.654Z,424.00
2023-07-17T07:15:20.660Z,422.00
2023-07-17T07:16:20.893Z,421.00
2023-07-17T07:17:20.633Z,423.00
2023-07-17T07:18:20.605Z,423.00
2023-07-17T07:19:20.601Z,424.00
2023-07-17T07:20:20.588Z,426.00
2023-07-17T07:21:20.666Z,423.00
2023-07-17T07:22:20.570Z,422.00
2023-07-17T07:23:20.646Z,419.00
2023-07-17T07:24:20.607Z,414.00
2023-07-17T07:25:20.618Z,414.00
2023-07-17T07:26:20.945Z,412.00
2023-07-17T07:27:20.602Z,412.00
2023-07-17T07:28:20.532Z,409.00
2023-07-17T07:29:20.573Z,408.00
2023-07-17T07:30:20.544Z,406.00
2023-07-17T07:31:20.582Z,407.00
2023-07-17T07:32:20.559Z,409.00
2023-07-17T07:33:20.547Z,409.00
2023-07-17T07:34:20.499Z,406.00
2023-07-17T07:35:20.495Z,406.00
2023-07-17T07:36:20.642Z,406.00
2023-07-17T07:37:20.523Z,406.00
2023-07-17T07:38:20.564Z,413.00
2023-07-17T07:39:20.471Z,409.00
2023-07-17T07:40:20.470Z,404.00
2023-07-17T07:41:20.509Z,404.00
2023-07-17T07:42:20.564Z,402.00
2023-07-17T07:43:20.512Z,403.00
2023-07-17T07:44:20.521Z,403.00
2023-07-17T07:45:20.482Z,406.00
2023-07-17T07:46:21.030Z,407.00
2023-07-17T07:47:20.567Z,407.00
2023-07-17T07:48:20.446Z,407.00
2023-07-17T07:49:20.456Z,407.00
2023-07-17T07:50:20.480Z,407.00
2023-07-17T07:51:20.500Z,406.00
2023-07-17T07:52:20.536Z,399.00
2023-07-17T07:53:20.593Z,408.00
2023-07-17T07:54:22.412Z,404.00
2023-07-17T07:55:22.921Z,405.00
2023-07-17T07:56:21.000Z,403.00
2023-07-17T07:57:20.614Z,411.00
2023-07-17T07:58:20.619Z,416.00
2023-07-17T07:59:20.579Z,414.00
2023-07-17T08:00:20.552Z,420.00
2023-07-17T08:01:20.531Z,419.00
2023-07-17T08:02:20.618Z,418.00
2023-07-17T08:03:20.593Z,420.00
2023-07-17T08:04:20.641Z,417.00
2023-07-17T08:05:20.559Z,414.00
2023-07-17T08:06:20.748Z,417.00
2023-07-17T08:07:20.511Z,418.00
2023-07-17T08:08:20.577Z,412.00
2023-07-17T08:09:20.528Z,413.00
2023-07-17T08:10:20.491Z,417.00
2023-07-17T08:11:20.459Z,415.00
2023-07-17T08:12:20.505Z,412.00
2023-07-17T08:13:20.507Z,416.00
2023-07-17T08:14:20.445Z,419.00
2023-07-17T08:15:20.458Z,425.00
2023-07-17T08:16:20.737Z,415.00
2023-07-17T08:17:20.478Z,415.00
2023-07-17T08:18:20.441Z,409.00
2023-07-17T08:19:20.455Z,410.00
2023-07-17T08:20:20.551Z,408.00
2023-07-17T08:21:20.530Z,403.00
2023-07-17T08:22:20.415Z,407.00
2023-07-17T08:23:20.422Z,407.00
2023-07-17T08:24:20.395Z,407.00
2023-07-17T08:25:20.389Z,401.00
2023-07-17T08:26:20.446Z,403.00
2023-07-17T08:27:20.414Z,405.00
2023-07-17T08:28:20.397Z,403.00
2023-07-17T08:29:20.352Z,403.00
2023-07-17T08:30:20.357Z,402.00
2023-07-17T08:31:20.383Z,402.00
2023-07-17T08:32:20.383Z,402.00
2023-07-17T08:33:20.457Z,404.00
2023-07-17T08:34:20.365Z,407.00
2023-07-17T08:35:20.359Z,406.00
2023-07-17T08:36:20.372Z,406.00
2023-07-17T08:37:20.368Z,405.00
2023-07-17T08:38:20.408Z,409.00
2023-07-17T08:39:20.367Z,413.00
2023-07-17T08:40:20.362Z,411.00
2023-07-17T08:41:20.406Z,430.00
2023-07-17T08:42:20.326Z,407.00
2023-07-17T08:43:20.277Z,413.00
2023-07-17T08:44:20.257Z,430.00
2023-07-17T08:45:20.341Z,416.00
2023-07-17T08:46:20.296Z,414.00
2023-07-17T08:47:20.405Z,419.00
2023-07-17T08:48:20.273Z,408.00
2023-07-17T08:49:20.363Z,409.00
2023-07-17T08:50:20.405Z,407.00
2023-07-17T08:51:20.610Z,413.00
2023-07-17T08:52:20.515Z,418.00
2023-07-17T08:53:20.531Z,412.00
2023-07-17T08:55:21.655Z,420.00
2023-07-17T08:56:20.609Z,416.00
2023-07-17T08:57:20.575Z,416.00
2023-07-17T08:58:20.580Z,413.00
2023-07-17T08:59:20.631Z,404.00
2023-07-17T09:00:20.575Z,415.00
2023-07-17T09:01:20.596Z,410.00
2023-07-17T09:02:20.574Z,411.00
2023-07-17T09:03:20.630Z,409.00
2023-07-17T09:04:20.563Z,409.00
2023-07-17T09:05:20.585Z,399.00
2023-07-17T09:06:21.185Z,404.00
2023-07-17T09:07:20.538Z,405.00
2023-07-17T09:08:20.555Z,413.00
2023-07-17T09:09:20.640Z,415.00
2023-07-17T09:10:20.709Z,402.00
2023-07-17T09:11:20.773Z,411.00
2023-07-17T09:12:20.849Z,415.00
2023-07-17T09:13:20.843Z,417.00
2023-07-17T09:14:20.890Z,404.00
2023-07-17T09:15:20.952Z,405.00
2023-07-17T09:16:20.997Z,405.00
2023-07-17T09:17:21.120Z,401.00
2023-07-17T09:18:21.092Z,403.00
2023-07-17T09:19:21.111Z,410.00
2023-07-17T09:20:21.186Z,411.00
2023-07-17T09:21:21.384Z,415.00
2023-07-17T09:22:21.245Z,414.00
2023-07-17T09:23:21.312Z,411.00
2023-07-17T09:24:21.334Z,412.00
2023-07-17T09:25:21.610Z,410.00
2023-07-17T09:26:21.367Z,411.00
2023-07-17T09:27:21.352Z,408.00
2023-07-17T09:28:21.356Z,408.00
2023-07-17T09:29:21.357Z,408.00
2023-07-17T09:30:21.356Z,407.00
2023-07-17T09:31:21.464Z,401.00
2023-07-17T09:32:21.355Z,399.00
2023-07-17T09:33:21.392Z,402.00
2023-07-17T09:34:21.388Z,398.00
2023-07-17T09:35:21.455Z,398.00
2023-07-17T09:36:21.389Z,400.00
2023-07-17T09:37:21.369Z,397.00
2023-07-17T09:38:21.366Z,400.00
2023-07-17T09:39:21.388Z,393.00
2023-07-17T09:40:21.386Z,392.00
2023-07-17T09:41:21.659Z,407.00
2023-07-17T09:42:21.593Z,404.00
2023-07-17T09:43:21.494Z,408.00
2023-07-17T09:44:21.590Z,405.00
2023-07-17T09:45:21.548Z,406.00
2023-07-17T09:46:21.705Z,402.00
2023-07-17T09:47:21.610Z,406.00
2023-07-17T09:48:21.581Z,406.00
2023-07-17T09:49:21.602Z,407.00
2023-07-17T09:50:21.643Z,407.00
2023-07-17T09:51:21.663Z,405.00
2023-07-17T09:52:21.754Z,405.00
2023-07-17T09:53:21.761Z,405.00
2023-07-17T09:54:21.834Z,404.00
2023-07-17T09:55:21.960Z,406.00
2023-07-17T09:56:21.921Z,403.00
2023-07-17T09:57:21.952Z,399.00
2023-07-17T09:58:21.953Z,399.00
2023-07-17T09:59:21.993Z,400.00
2023-07-17T10:00:22.053Z,391.00
2023-07-17T10:01:22.261Z,410.00
2023-07-17T10:02:22.165Z,397.00
2023-07-17T10:03:22.314Z,402.00
2023-07-17T10:04:22.211Z,398.00
2023-07-17T10:05:22.288Z,404.00
2023-07-17T10:06:22.320Z,406.00
2023-07-17T10:07:22.322Z,394.00
2023-07-17T10:08:22.469Z,396.00
2023-07-17T10:09:22.456Z,399.00
2023-07-17T10:10:22.465Z,400.00
2023-07-17T10:11:22.535Z,396.00
2023-07-17T10:12:22.548Z,395.00
2023-07-17T10:13:22.591Z,393.00
2023-07-17T10:14:22.632Z,399.00
2023-07-17T10:15:22.790Z,398.00
2023-07-17T10:16:22.740Z,401.00
2023-07-17T10:17:22.735Z,396.00
2023-07-17T10:18:22.759Z,398.00
2023-07-17T10:19:22.802Z,394.00
2023-07-17T10:20:22.831Z,395.00
2023-07-17T10:21:23.054Z,396.00
2023-07-17T10:22:22.857Z,390.00
2023-07-17T10:23:22.875Z,389.00
2023-07-17T10:24:23.062Z,395.00
2023-07-17T10:25:22.948Z,389.00
2023-07-17T10:26:22.950Z,396.00
2023-07-17T10:27:22.940Z,397.00
2023-07-17T10:28:23.016Z,396.00
2023-07-17T10:29:23.009Z,393.00
2023-07-17T10:30:22.999Z,399.00
2023-07-17T10:31:23.444Z,397.00
2023-07-17T10:32:23.014Z,393.00
2023-07-17T10:33:23.096Z,388.00
2023-07-17T10:34:23.012Z,402.00
2023-07-17T10:35:23.040Z,394.00
2023-07-17T10:36:23.086Z,396.00
2023-07-17T10:37:23.082Z,392.00
2023-07-17T10:38:23.087Z,399.00
2023-07-17T10:39:23.164Z,392.00
2023-07-17T10:40:23.159Z,390.00
2023-07-17T10:41:23.123Z,391.00
2023-07-17T10:42:23.284Z,394.00
2023-07-17T10:43:23.223Z,398.00
2023-07-17T10:44:23.329Z,388.00
2023-07-17T10:45:23.298Z,394.00
2023-07-17T10:46:23.406Z,395.00
2023-07-17T10:47:23.376Z,395.00
2023-07-17T10:48:23.438Z,395.00
2023-07-17T10:49:23.489Z,396.00
2023-07-17T10:50:23.519Z,391.00
2023-07-17T10:51:23.562Z,388.00
2023-07-17T10:52:23.620Z,384.00
2023-07-17T10:53:23.683Z,384.00
2023-07-17T10:54:23.727Z,381.00
2023-07-17T10:55:23.798Z,383.00
2023-07-17T10:56:23.889Z,387.00
2023-07-17T10:57:23.861Z,389.00
2023-07-17T10:58:23.828Z,381.00
2023-07-17T10:59:23.914Z,382.00
2023-07-17T11:00:24.013Z,387.00
2023-07-17T11:01:24.068Z,383.00
2023-07-17T11:02:24.071Z,381.00
2023-07-17T11:03:24.120Z,381.00
2023-07-17T11:04:24.226Z,381.00
2023-07-17T11:05:24.229Z,385.00
2023-07-17T11:06:24.294Z,371.00
2023-07-17T11:07:24.333Z,384.00
2023-07-17T11:08:24.382Z,374.00
2023-07-17T11:09:24.461Z,376.00
2023-07-17T11:10:24.549Z,376.00
2023-07-17T11:11:24.480Z,375.00
2023-07-17T11:12:24.537Z,379.00
2023-07-17T11:13:24.567Z,414.00
2023-07-17T11:14:24.636Z,393.00
2023-07-17T11:15:24.809Z,391.00
2023-07-17T11:16:24.744Z,391.00
2023-07-17T11:17:24.833Z,390.00
2023-07-17T11:18:24.865Z,393.00
2023-07-17T11:19:24.890Z,392.00
2023-07-17T11:20:24.994Z,392.00
2023-07-17T11:21:24.933Z,389.00
2023-07-17T11:22:24.983Z,387.00
2023-07-17T11:23:24.991Z,390.00
2023-07-17T11:24:24.977Z,384.00
2023-07-17T11:25:25.006Z,390.00
2023-07-17T11:26:24.995Z,386.00
2023-07-17T11:27:25.000Z,385.00
2023-07-17T11:28:24.995Z,403.00
2023-07-17T11:29:24.988Z,379.00
2023-07-17T11:30:25.064Z,384.00
2023-07-17T11:31:25.281Z,380.00
2023-07-17T11:32:25.051Z,384.00
2023-07-17T11:33:25.134Z,377.00
2023-07-17T11:34:25.119Z,383.00
2023-07-17T11:35:25.184Z,380.00
2023-07-17T11:36:25.198Z,380.00
2023-07-17T11:37:25.239Z,383.00
2023-07-17T11:38:25.244Z,384.00
2023-07-17T11:39:25.273Z,390.00
2023-07-17T11:40:25.334Z,385.00
2023-07-17T11:41:25.335Z,383.00
2023-07-17T11:42:25.404Z,388.00
2023-07-17T11:43:25.458Z,385.00
2023-07-17T11:44:25.464Z,385.00
2023-07-17T11:45:25.491Z,380.00
2023-07-17T11:46:25.546Z,405.00
2023-07-17T11:47:25.566Z,379.00
2023-07-17T11:48:25.497Z,382.00
2023-07-17T11:49:25.508Z,391.00
2023-07-17T11:50:25.540Z,390.00
2023-07-17T11:51:25.501Z,385.00
2023-07-17T11:52:25.552Z,381.00
2023-07-17T11:53:25.532Z,380.00
2023-07-17T11:54:25.570Z,390.00
2023-07-17T11:55:25.581Z,384.00
2023-07-17T11:56:25.646Z,381.00
2023-07-17T11:57:25.691Z,388.00
2023-07-17T11:58:25.706Z,394.00
2023-07-17T11:59:25.722Z,387.00
2023-07-17T12:00:25.775Z,388.00
2023-07-17T12:01:25.878Z,393.00
2023-07-17T12:02:25.907Z,388.00
2023-07-17T12:03:25.979Z,388.00
2023-07-17T12:04:26.004Z,387.00
2023-07-17T12:05:26.062Z,389.00
2023-07-17T12:06:26.177Z,380.00
2023-07-17T12:07:26.158Z,381.00
2023-07-17T12:08:26.166Z,390.00
2023-07-17T12:09:26.175Z,389.00
2023-07-17T12:10:27.607Z,410.00
2023-07-17T12:11:26.278Z,387.00
2023-07-17T12:12:26.367Z,383.00
2023-07-17T12:13:26.409Z,386.00
2023-07-17T12:14:26.455Z,385.00
2023-07-17T12:15:26.454Z,389.00
2023-07-17T12:16:26.564Z,392.00
2023-07-17T12:17:26.563Z,396.00
2023-07-17T12:18:26.559Z,378.00
2023-07-17T12:19:26.619Z,385.00
2023-07-17T12:20:26.633Z,391.00
2023-07-17T12:21:30.335Z,389.00
2023-07-17T12:22:26.697Z,376.00
2023-07-17T12:23:26.650Z,376.00
2023-07-17T12:24:26.769Z,380.00
2023-07-17T12:25:26.623Z,384.00
2023-07-17T12:26:27.617Z,381.00
2023-07-17T12:27:29.358Z,386.00
2023-07-17T12:28:26.620Z,374.00
2023-07-17T12:29:28.479Z,380.00